sensor_id;sensor_type;location;lat;lon;timestamp;pressure;altitude;pressure_sealevel;temperature;humidity
39443;BME280;25147;52.142;9.960;2023-06-26T00:00:26;100459.63;;;20.29;88.75
39443;BME280;25147;52.142;9.960;2023-06-26T00:02:55;100334.75;;;19.32;88.93
39443;BME280;25147;52.142;9.960;2023-06-26T00:05:22;100422.94;;;20.04;88.15
39443;BME280;25147;52.142;9.960;2023-06-26T00:07:53;100329.38;;;19.34;87.90
39443;BME280;25147;52.142;9.960;2023-06-26T00:10:23;100458.19;;;20.23;88.93
39443;BME280;25147;52.142;9.960;2023-06-26T00:12:54;100327.06;;;19.43;88.80
39443;BME280;25147;52.142;9.960;2023-06-26T00:15:37;100447.03;;;20.17;88.93
39443;BME280;25147;52.142;9.960;2023-06-26T00:18:23;100285.25;;;19.15;89.13
39443;BME280;25147;52.142;9.960;2023-06-26T00:21:20;100216.69;;;18.57;88.58
39443;BME280;25147;52.142;9.960;2023-06-26T00:23:49;100333.75;;;19.51;90.00
39443;BME280;25147;52.142;9.960;2023-06-26T00:33:08;100165.28;;;18.26;89.76
39443;BME280;25147;52.142;9.960;2023-06-26T00:39:20;100182.03;;;18.44;83.57
39443;BME280;25147;52.142;9.960;2023-06-26T00:41:51;100167.69;;;18.48;82.72
39443;BME280;25147;52.142;9.960;2023-06-26T00:44:32;100339.75;;;19.54;81.03
39443;BME280;25147;52.142;9.960;2023-06-26T00:49:55;100302.47;;;19.56;79.16
39443;BME280;25147;52.142;9.960;2023-06-26T00:52:24;100317.47;;;19.57;78.18
39443;BME280;25147;52.142;9.960;2023-06-26T00:57:59;100263.69;;;19.53;76.27
39443;BME280;25147;52.142;9.960;2023-06-26T01:00:34;100427.81;;;20.59;76.17
39443;BME280;25147;52.142;9.960;2023-06-26T01:03:07;100140.19;;;18.82;75.17
39443;BME280;25147;52.142;9.960;2023-06-26T01:05:43;100442.50;;;20.67;75.07
39443;BME280;25147;52.142;9.960;2023-06-26T01:08:15;100240.81;;;19.67;74.93
39443;BME280;25147;52.142;9.960;2023-06-26T01:10:54;100246.66;;;19.73;74.34
39443;BME280;25147;52.142;9.960;2023-06-26T01:13:30;100333.25;;;20.23;74.46
39443;BME280;25147;52.142;9.960;2023-06-26T01:15:59;100155.44;;;19.27;74.17
39443;BME280;25147;52.142;9.960;2023-06-26T01:18:32;100407.19;;;20.79;73.36
39443;BME280;25147;52.142;9.960;2023-06-26T01:28:02;100142.88;;;19.30;72.68
39443;BME280;25147;52.142;9.960;2023-06-26T01:30:32;100260.47;;;20.10;72.21
39443;BME280;25147;52.142;9.960;2023-06-26T01:33:00;100215.69;;;19.88;72.46
39443;BME280;25147;52.142;9.960;2023-06-26T01:35:35;100152.59;;;19.45;72.03
39443;BME280;25147;52.142;9.960;2023-06-26T01:38:24;100406.69;;;21.02;72.28
39443;BME280;25147;52.142;9.960;2023-06-26T01:41:21;100291.06;;;20.48;72.01
39443;BME280;25147;52.142;9.960;2023-06-26T01:44:09;100276.50;;;20.39;71.59
39443;BME280;25147;52.142;9.960;2023-06-26T01:46:45;100129.56;;;19.46;71.75
39443;BME280;25147;52.142;9.960;2023-06-26T01:49:21;100408.38;;;21.03;71.87
39443;BME280;25147;52.142;9.960;2023-06-26T01:51:58;100252.41;;;20.12;71.68
39443;BME280;25147;52.142;9.960;2023-06-26T01:54:37;100370.25;;;21.03;71.51
39443;BME280;25147;52.142;9.960;2023-06-26T01:57:16;100388.81;;;21.04;71.50
39443;BME280;25147;52.142;9.960;2023-06-26T01:59:54;100278.44;;;20.51;71.36
39443;BME280;25147;52.142;9.960;2023-06-26T02:02:50;100200.31;;;20.09;70.99
39443;BME280;25147;52.142;9.960;2023-06-26T02:05:16;100290.09;;;20.64;71.15
39443;BME280;25147;52.142;9.960;2023-06-26T02:07:48;100356.59;;;21.09;71.44
39443;BME280;25147;52.142;9.960;2023-06-26T02:10:16;100093.25;;;19.47;71.36
39443;BME280;25147;52.142;9.960;2023-06-26T02:12:46;100260.69;;;20.52;70.90
39443;BME280;25147;52.142;9.960;2023-06-26T02:15:19;100252.47;;;20.40;71.11
39443;BME280;25147;52.142;9.960;2023-06-26T02:18:12;100207.50;;;20.07;71.06
39443;BME280;25147;52.142;9.960;2023-06-26T02:20:55;100371.13;;;21.03;71.36
39443;BME280;25147;52.142;9.960;2023-06-26T02:23:23;100338.50;;;21.00;71.45
39443;BME280;25147;52.142;9.960;2023-06-26T02:25:55;100080.13;;;19.43;70.98
39443;BME280;25147;52.142;9.960;2023-06-26T02:28:27;100220.59;;;20.10;71.25
39443;BME280;25147;52.142;9.960;2023-06-26T02:30:55;100173.56;;;19.96;71.21
39443;BME280;25147;52.142;9.960;2023-06-26T02:33:44;100362.38;;;21.01;71.16
39443;BME280;25147;52.142;9.960;2023-06-26T02:36:14;100058.75;;;19.31;71.20
39443;BME280;25147;52.142;9.960;2023-06-26T02:38:45;100163.16;;;19.93;71.24
39443;BME280;25147;52.142;9.960;2023-06-26T02:41:11;100070.63;;;19.39;71.40
39443;BME280;25147;52.142;9.960;2023-06-26T02:43:41;100266.78;;;20.54;71.40
39443;BME280;25147;52.142;9.960;2023-06-26T02:46:09;100339.84;;;20.93;71.60
39443;BME280;25147;52.142;9.960;2023-06-26T02:48:36;100159.03;;;19.88;71.46
39443;BME280;25147;52.142;9.960;2023-06-26T02:51:10;100328.50;;;20.89;71.82
39443;BME280;25147;52.142;9.960;2023-06-26T02:53:39;100260.47;;;20.40;71.93
39443;BME280;25147;52.142;9.960;2023-06-26T02:56:08;100074.00;;;19.27;71.92
39443;BME280;25147;52.142;9.960;2023-06-26T02:58:36;100307.13;;;20.76;71.62
39443;BME280;25147;52.142;9.960;2023-06-26T03:01:32;100226.22;;;20.20;72.03
39443;BME280;25147;52.142;9.960;2023-06-26T03:04:02;100343.13;;;20.82;72.23
39443;BME280;25147;52.142;9.960;2023-06-26T03:06:47;100327.72;;;20.73;72.27
39443;BME280;25147;52.142;9.960;2023-06-26T03:09:17;100326.69;;;20.75;72.47
39443;BME280;25147;52.142;9.960;2023-06-26T03:12:12;100037.44;;;19.02;72.49
39443;BME280;25147;52.142;9.960;2023-06-26T03:14:45;100336.63;;;20.72;73.01
39443;BME280;25147;52.142;9.960;2023-06-26T03:17:16;100304.81;;;20.70;72.44
39443;BME280;25147;52.142;9.960;2023-06-26T03:19:59;100147.53;;;19.73;72.47
39443;BME280;25147;52.142;9.960;2023-06-26T03:22:40;100073.03;;;19.14;72.08
39443;BME280;25147;52.142;9.960;2023-06-26T03:25:07;100325.91;;;20.73;72.75
39443;BME280;25147;52.142;9.960;2023-06-26T03:27:46;100094.03;;;19.33;72.46
39443;BME280;25147;52.142;9.960;2023-06-26T03:30:33;100301.28;;;20.70;72.21
39443;BME280;25147;52.142;9.960;2023-06-26T03:33:05;100234.06;;;20.37;72.26
39443;BME280;25147;52.142;9.960;2023-06-26T03:35:35;100187.66;;;20.13;72.08
39443;BME280;25147;52.142;9.960;2023-06-26T03:38:10;100298.84;;;20.81;72.55
39443;BME280;25147;52.142;9.960;2023-06-26T03:41:01;100290.09;;;20.79;71.95
39443;BME280;25147;52.142;9.960;2023-06-26T03:44:04;100315.66;;;20.81;71.44
39443;BME280;25147;52.142;9.960;2023-06-26T03:53:35;100311.38;;;20.79;72.31
39443;BME280;25147;52.142;9.960;2023-06-26T03:56:24;100291.63;;;20.83;72.59
39443;BME280;25147;52.142;9.960;2023-06-26T03:59:23;100174.66;;;20.08;72.42
39443;BME280;25147;52.142;9.960;2023-06-26T04:01:50;100298.84;;;20.81;72.66
39443;BME280;25147;52.142;9.960;2023-06-26T04:08:35;100299.38;;;20.72;73.60
39443;BME280;25147;52.142;9.960;2023-06-26T04:11:04;100042.31;;;19.10;74.42
39443;BME280;25147;52.142;9.960;2023-06-26T04:13:57;100145.72;;;19.57;74.59
39443;BME280;25147;52.142;9.960;2023-06-26T04:16:28;100322.94;;;20.63;74.48
39443;BME280;25147;52.142;9.960;2023-06-26T04:19:13;100118.66;;;19.51;74.82
39443;BME280;25147;52.142;9.960;2023-06-26T04:21:40;100188.09;;;19.91;74.52
39443;BME280;25147;52.142;9.960;2023-06-26T04:24:21;100201.59;;;20.02;74.57
39443;BME280;25147;52.142;9.960;2023-06-26T04:32:32;100287.91;;;20.71;75.18
39443;BME280;25147;52.142;9.960;2023-06-26T04:35:28;100005.31;;;19.07;75.16
39443;BME280;25147;52.142;9.960;2023-06-26T04:38:28;100305.88;;;20.82;75.28
39443;BME280;25147;52.142;9.960;2023-06-26T04:41:31;100134.78;;;20.08;75.22
39443;BME280;25147;52.142;9.960;2023-06-26T04:44:39;100285.06;;;21.17;74.96
39443;BME280;25147;52.142;9.960;2023-06-26T04:47:15;100102.91;;;20.37;73.63
39443;BME280;25147;52.142;9.960;2023-06-26T04:50:23;100271.63;;;21.62;73.37
39443;BME280;25147;52.142;9.960;2023-06-26T04:53:03;100117.03;;;20.95;72.13
39443;BME280;25147;52.142;9.960;2023-06-26T04:55:57;100085.72;;;20.98;71.01
39443;BME280;25147;52.142;9.960;2023-06-26T04:58:52;100260.28;;;22.53;69.32
39443;BME280;25147;52.142;9.960;2023-06-26T05:01:27;100020.19;;;21.10;68.34
39443;BME280;25147;52.142;9.960;2023-06-26T05:07:52;100101.13;;;21.75;68.27
39443;BME280;25147;52.142;9.960;2023-06-26T05:10:45;100122.78;;;21.83;67.84
39443;BME280;25147;52.142;9.960;2023-06-26T05:13:41;100164.13;;;22.29;68.38
39443;BME280;25147;52.142;9.960;2023-06-26T05:16:29;100128.97;;;21.83;68.10
39443;BME280;25147;52.142;9.960;2023-06-26T05:19:35;100017.78;;;21.20;68.08
39443;BME280;25147;52.142;9.960;2023-06-26T05:22:35;100270.66;;;22.70;67.81
39443;BME280;25147;52.142;9.960;2023-06-26T05:29:40;100009.09;;;21.03;68.76
39443;BME280;25147;52.142;9.960;2023-06-26T05:35:54;100075.94;;;21.53;69.48
39443;BME280;25147;52.142;9.960;2023-06-26T05:46:46;100228.78;;;22.32;68.89
39443;BME280;25147;52.142;9.960;2023-06-26T05:49:59;100251.09;;;22.31;68.89
39443;BME280;25147;52.142;9.960;2023-06-26T05:52:57;100029.97;;;20.97;68.70
39443;BME280;25147;52.142;9.960;2023-06-26T05:55:27;100130.84;;;21.69;68.53
39443;BME280;25147;52.142;9.960;2023-06-26T05:58:00;99966.91;;;20.43;68.70
39443;BME280;25147;52.142;9.960;2023-06-26T06:00:38;100229.69;;;22.18;68.70
39443;BME280;25147;52.142;9.960;2023-06-26T06:03:16;100121.28;;;21.66;68.81
39443;BME280;25147;52.142;9.960;2023-06-26T06:06:01;100225.38;;;22.30;68.32
39443;BME280;25147;52.142;9.960;2023-06-26T06:08:49;99980.31;;;20.83;68.13
39443;BME280;25147;52.142;9.960;2023-06-26T06:11:39;99974.19;;;20.68;67.71
39443;BME280;25147;52.142;9.960;2023-06-26T06:14:46;99934.94;;;20.57;68.62
39443;BME280;25147;52.142;9.960;2023-06-26T06:18:05;100076.84;;;21.39;68.61
39443;BME280;25147;52.142;9.960;2023-06-26T06:21:01;100238.72;;;22.43;68.69
39443;BME280;25147;52.142;9.960;2023-06-26T06:23:43;100068.34;;;21.47;68.83
39443;BME280;25147;52.142;9.960;2023-06-26T06:26:21;100049.63;;;21.49;69.42
39443;BME280;25147;52.142;9.960;2023-06-26T06:28:50;100091.41;;;21.61;68.92
39443;BME280;25147;52.142;9.960;2023-06-26T06:31:17;100175.19;;;22.22;68.77
39443;BME280;25147;52.142;9.960;2023-06-26T06:33:56;100203.81;;;22.46;68.94
39443;BME280;25147;52.142;9.960;2023-06-26T06:36:29;100243.31;;;22.67;69.19
39443;BME280;25147;52.142;9.960;2023-06-26T06:39:00;99985.94;;;21.18;69.83
39443;BME280;25147;52.142;9.960;2023-06-26T06:41:33;99962.28;;;21.14;68.93
39443;BME280;25147;52.142;9.960;2023-06-26T06:44:06;99980.66;;;21.31;68.91
39443;BME280;25147;52.142;9.960;2023-06-26T06:46:35;100023.13;;;21.60;68.21
39443;BME280;25147;52.142;9.960;2023-06-26T06:49:08;100068.97;;;21.91;68.81
39443;BME280;25147;52.142;9.960;2023-06-26T06:52:03;99951.78;;;21.25;69.19
39443;BME280;25147;52.142;9.960;2023-06-26T06:54:54;99983.44;;;21.55;69.06
39443;BME280;25147;52.142;9.960;2023-06-26T07:00:29;100216.28;;;23.22;68.49
39443;BME280;25147;52.142;9.960;2023-06-26T07:02:57;100056.50;;;22.30;68.20
39443;BME280;25147;52.142;9.960;2023-06-26T07:05:38;100127.69;;;22.79;67.60
39443;BME280;25147;52.142;9.960;2023-06-26T07:08:25;100016.28;;;22.07;67.37
39443;BME280;25147;52.142;9.960;2023-06-26T07:11:01;100235.56;;;23.39;66.81
39443;BME280;25147;52.142;9.960;2023-06-26T07:13:28;100209.91;;;23.36;66.92
39443;BME280;25147;52.142;9.960;2023-06-26T07:15:55;100165.97;;;23.16;66.89
39443;BME280;25147;52.142;9.960;2023-06-26T07:18:25;99989.19;;;22.13;66.79
39443;BME280;25147;52.142;9.960;2023-06-26T07:20:54;100018.72;;;22.36;66.20
39443;BME280;25147;52.142;9.960;2023-06-26T07:24:07;99936.13;;;21.84;66.78
39443;BME280;25147;52.142;9.960;2023-06-26T07:26:34;100143.78;;;23.03;66.75
39443;BME280;25147;52.142;9.960;2023-06-26T07:29:10;100226.47;;;23.66;66.98
39443;BME280;25147;52.142;9.960;2023-06-26T07:32:10;99948.34;;;22.13;66.41
39443;BME280;25147;52.142;9.960;2023-06-26T07:34:46;99975.19;;;22.35;66.08
39443;BME280;25147;52.142;9.960;2023-06-26T07:37:33;99980.63;;;22.34;65.52
39443;BME280;25147;52.142;9.960;2023-06-26T07:40:14;100241.56;;;23.91;65.60
39443;BME280;25147;52.142;9.960;2023-06-26T07:45:48;100055.66;;;23.03;64.00
39443;BME280;25147;52.142;9.960;2023-06-26T07:48:19;100250.38;;;24.04;64.27
39443;BME280;25147;52.142;9.960;2023-06-26T07:51:12;100217.09;;;24.08;63.92
39443;BME280;25147;52.142;9.960;2023-06-26T07:53:41;100070.09;;;23.25;62.49
39443;BME280;25147;52.142;9.960;2023-06-26T07:56:15;100030.22;;;22.97;62.68
39443;BME280;25147;52.142;9.960;2023-06-26T07:59:19;99958.06;;;22.75;61.61
39443;BME280;25147;52.142;9.960;2023-06-26T08:01:46;100056.78;;;23.36;61.60
39443;BME280;25147;52.142;9.960;2023-06-26T08:04:23;99976.22;;;22.94;61.11
39443;BME280;25147;52.142;9.960;2023-06-26T08:07:00;100136.09;;;23.95;60.93
39443;BME280;25147;52.142;9.960;2023-06-26T08:09:41;99964.78;;;22.92;59.72
39443;BME280;25147;52.142;9.960;2023-06-26T08:12:13;100219.16;;;24.51;59.88
39443;BME280;25147;52.142;9.960;2023-06-26T08:14:44;100002.97;;;23.29;59.43
39443;BME280;25147;52.142;9.960;2023-06-26T08:17:14;100123.97;;;24.02;59.50
39443;BME280;25147;52.142;9.960;2023-06-26T08:19:53;100045.06;;;23.61;60.01
39443;BME280;25147;52.142;9.960;2023-06-26T08:22:26;100154.78;;;24.30;60.61
39443;BME280;25147;52.142;9.960;2023-06-26T08:24:57;99972.53;;;23.08;61.07
39443;BME280;25147;52.142;9.960;2023-06-26T08:27:48;100128.22;;;24.16;61.34
39443;BME280;25147;52.142;9.960;2023-06-26T08:30:19;100150.16;;;24.32;60.87
39443;BME280;25147;52.142;9.960;2023-06-26T08:32:51;99968.97;;;23.31;61.07
39443;BME280;25147;52.142;9.960;2023-06-26T08:35:27;100054.44;;;23.67;61.15
39443;BME280;25147;52.142;9.960;2023-06-26T08:38:00;100240.72;;;24.72;61.96
39443;BME280;25147;52.142;9.960;2023-06-26T08:41:19;100230.13;;;24.82;61.66
39443;BME280;25147;52.142;9.960;2023-06-26T08:43:55;99965.47;;;23.31;61.86
39443;BME280;25147;52.142;9.960;2023-06-26T08:46:22;100139.81;;;24.50;61.09
39443;BME280;25147;52.142;9.960;2023-06-26T08:48:56;100090.53;;;24.19;60.12
39443;BME280;25147;52.142;9.960;2023-06-26T08:51:25;100075.09;;;24.22;60.82
39443;BME280;25147;52.142;9.960;2023-06-26T08:53:57;100176.81;;;24.90;60.26
39443;BME280;25147;52.142;9.960;2023-06-26T08:56:27;100208.59;;;25.06;59.74
39443;BME280;25147;52.142;9.960;2023-06-26T08:59:11;100044.44;;;24.15;59.80
39443;BME280;25147;52.142;9.960;2023-06-26T09:01:45;100056.72;;;24.18;59.77
39443;BME280;25147;52.142;9.960;2023-06-26T09:04:18;100050.03;;;24.23;59.29
39443;BME280;25147;52.142;9.960;2023-06-26T09:06:49;99967.13;;;23.78;59.54
39443;BME280;25147;52.142;9.960;2023-06-26T09:09:27;100222.22;;;25.26;59.11
39443;BME280;25147;52.142;9.960;2023-06-26T09:11:54;100162.22;;;24.94;59.36
39443;BME280;25147;52.142;9.960;2023-06-26T09:14:23;100131.06;;;24.71;58.36
39443;BME280;25147;52.142;9.960;2023-06-26T09:16:56;100168.19;;;24.98;59.20
39443;BME280;25147;52.142;9.960;2023-06-26T09:19:27;100103.31;;;24.60;59.61
39443;BME280;25147;52.142;9.960;2023-06-26T09:21:55;100098.47;;;24.66;59.76
39443;BME280;25147;52.142;9.960;2023-06-26T09:24:22;100228.19;;;25.40;59.89
39443;BME280;25147;52.142;9.960;2023-06-26T09:26:54;100265.25;;;25.79;60.18
39443;BME280;25147;52.142;9.960;2023-06-26T09:29:21;100177.94;;;25.54;59.55
39443;BME280;25147;52.142;9.960;2023-06-26T09:31:51;100179.50;;;25.56;59.77
39443;BME280;25147;52.142;9.960;2023-06-26T09:34:42;100143.78;;;25.35;59.13
39443;BME280;25147;52.142;9.960;2023-06-26T09:37:11;100250.34;;;25.97;58.60
39443;BME280;25147;52.142;9.960;2023-06-26T09:39:38;100113.72;;;25.20;58.61
39443;BME280;25147;52.142;9.960;2023-06-26T09:42:05;100186.19;;;25.62;59.24
39443;BME280;25147;52.142;9.960;2023-06-26T09:44:35;100138.84;;;25.51;59.33
39443;BME280;25147;52.142;9.960;2023-06-26T09:47:06;100236.22;;;26.16;59.58
39443;BME280;25147;52.142;9.960;2023-06-26T09:49:40;100265.22;;;26.22;59.22
39443;BME280;25147;52.142;9.960;2023-06-26T09:52:08;100110.03;;;25.32;58.86
39443;BME280;25147;52.142;9.960;2023-06-26T09:54:44;100099.53;;;25.40;58.02
39443;BME280;25147;52.142;9.960;2023-06-26T09:57:34;100270.03;;;26.40;58.44
39443;BME280;25147;52.142;9.960;2023-06-26T10:00:10;100106.66;;;25.51;57.97
39443;BME280;25147;52.142;9.960;2023-06-26T10:02:39;100171.56;;;25.98;56.96
39443;BME280;25147;52.142;9.960;2023-06-26T10:05:06;100264.78;;;26.59;57.43
39443;BME280;25147;52.142;9.960;2023-06-26T10:07:34;100268.06;;;26.63;58.05
39443;BME280;25147;52.142;9.960;2023-06-26T10:10:02;100219.53;;;26.13;58.44
39443;BME280;25147;52.142;9.960;2023-06-26T10:12:30;100290.56;;;26.51;57.67
39443;BME280;25147;52.142;9.960;2023-06-26T10:15:02;100199.50;;;25.85;57.94
39443;BME280;25147;52.142;9.960;2023-06-26T10:17:34;100165.34;;;25.11;57.90
39443;BME280;25147;52.142;9.960;2023-06-26T10:20:09;100154.66;;;24.77;59.14
39443;BME280;25147;52.142;9.960;2023-06-26T10:22:42;100197.41;;;24.90;59.83
39443;BME280;25147;52.142;9.960;2023-06-26T10:25:18;100337.22;;;25.29;61.01
39443;BME280;25147;52.142;9.960;2023-06-26T10:27:53;100232.53;;;24.62;62.43
39443;BME280;25147;52.142;9.960;2023-06-26T10:30:26;100307.56;;;24.96;62.80
39443;BME280;25147;52.142;9.960;2023-06-26T10:32:54;100307.31;;;24.88;62.11
39443;BME280;25147;52.142;9.960;2023-06-26T10:35:30;100201.78;;;24.10;61.68
39443;BME280;25147;52.142;9.960;2023-06-26T10:38:06;100294.75;;;24.42;61.78
39443;BME280;25147;52.142;9.960;2023-06-26T10:40:41;100090.44;;;23.14;62.28
39443;BME280;25147;52.142;9.960;2023-06-26T10:43:09;100324.28;;;24.53;62.97
39443;BME280;25147;52.142;9.960;2023-06-26T10:45:37;100320.09;;;24.49;62.08
39443;BME280;25147;52.142;9.960;2023-06-26T10:48:12;100325.25;;;24.52;62.39
39443;BME280;25147;52.142;9.960;2023-06-26T10:50:41;100293.44;;;24.36;63.05
39443;BME280;25147;52.142;9.960;2023-06-26T10:53:09;100075.41;;;23.00;63.84
39443;BME280;25147;52.142;9.960;2023-06-26T10:55:37;100321.97;;;24.60;63.97
39443;BME280;25147;52.142;9.960;2023-06-26T10:58:30;100369.03;;;24.87;64.50
39443;BME280;25147;52.142;9.960;2023-06-26T11:01:17;100361.56;;;24.79;65.44
39443;BME280;25147;52.142;9.960;2023-06-26T11:03:45;100367.88;;;24.67;66.91
39443;BME280;25147;52.142;9.960;2023-06-26T11:06:18;100371.06;;;24.48;69.16
39443;BME280;25147;52.142;9.960;2023-06-26T11:08:49;100362.19;;;24.23;71.00
39443;BME280;25147;52.142;9.960;2023-06-26T11:14:28;100383.38;;;23.89;76.62
39443;BME280;25147;52.142;9.960;2023-06-26T11:17:02;100131.16;;;22.17;78.44
39443;BME280;25147;52.142;9.960;2023-06-26T11:19:30;100374.97;;;23.57;79.54
39443;BME280;25147;52.142;9.960;2023-06-26T11:22:11;100312.09;;;23.27;80.90
39443;BME280;25147;52.142;9.960;2023-06-26T11:28:00;100308.91;;;23.09;80.55
39443;BME280;25147;52.142;9.960;2023-06-26T11:30:39;100147.66;;;22.09;80.43
39443;BME280;25147;52.142;9.960;2023-06-26T11:33:59;100388.69;;;23.52;79.01
39443;BME280;25147;52.142;9.960;2023-06-26T11:36:29;100156.41;;;21.98;78.35
39443;BME280;25147;52.142;9.960;2023-06-26T11:39:19;100154.78;;;21.96;76.75
39443;BME280;25147;52.142;9.960;2023-06-26T11:41:46;100326.59;;;22.97;75.09
39443;BME280;25147;52.142;9.960;2023-06-26T11:44:30;100136.53;;;21.90;74.93
39443;BME280;25147;52.142;9.960;2023-06-26T11:46:57;100326.69;;;22.83;74.67
39443;BME280;25147;52.142;9.960;2023-06-26T11:49:45;100312.78;;;22.52;75.60
39443;BME280;25147;52.142;9.960;2023-06-26T11:52:17;100270.81;;;22.01;76.39
39443;BME280;25147;52.142;9.960;2023-06-26T11:55:07;100310.00;;;22.14;77.57
39443;BME280;25147;52.142;9.960;2023-06-26T12:00:35;100153.44;;;20.80;80.10
39443;BME280;25147;52.142;9.960;2023-06-26T12:03:08;100305.06;;;21.80;80.88
39443;BME280;25147;52.142;9.960;2023-06-26T12:05:37;100258.34;;;21.48;81.79
39443;BME280;25147;52.142;9.960;2023-06-26T12:08:09;100353.22;;;22.19;82.31
39443;BME280;25147;52.142;9.960;2023-06-26T12:10:38;100283.53;;;21.83;82.12
39443;BME280;25147;52.142;9.960;2023-06-26T12:13:09;100296.47;;;21.90;81.74
39443;BME280;25147;52.142;9.960;2023-06-26T12:15:36;100342.66;;;22.17;81.64
39443;BME280;25147;52.142;9.960;2023-06-26T12:21:04;100319.19;;;22.50;81.18
39443;BME280;25147;52.142;9.960;2023-06-26T12:23:45;100279.50;;;22.45;80.11
39443;BME280;25147;52.142;9.960;2023-06-26T12:26:17;100310.50;;;22.86;79.54
39443;BME280;25147;52.142;9.960;2023-06-26T12:28:47;100366.38;;;23.28;78.09
39443;BME280;25147;52.142;9.960;2023-06-26T12:31:21;100272.44;;;22.57;78.77
39443;BME280;25147;52.142;9.960;2023-06-26T12:33:49;100170.25;;;22.03;77.84
39443;BME280;25147;52.142;9.960;2023-06-26T12:36:39;100431.75;;;23.73;76.95
39443;BME280;25147;52.142;9.960;2023-06-26T12:39:21;100343.06;;;23.30;72.14
39443;BME280;25147;52.142;9.960;2023-06-26T12:41:57;100300.53;;;22.75;69.42
39443;BME280;25147;52.142;9.960;2023-06-26T12:44:30;100183.41;;;22.19;67.69
39443;BME280;25147;52.142;9.960;2023-06-26T12:46:59;100348.19;;;23.20;66.44
39443;BME280;25147;52.142;9.960;2023-06-26T12:49:33;100417.56;;;23.47;66.11
39443;BME280;25147;52.142;9.960;2023-06-26T12:52:07;100372.78;;;23.25;66.00
39443;BME280;25147;52.142;9.960;2023-06-26T12:54:40;100478.41;;;23.82;65.98
39443;BME280;25147;52.142;9.960;2023-06-26T12:57:11;100293.91;;;22.81;66.17
39443;BME280;25147;52.142;9.960;2023-06-26T12:59:40;100340.81;;;22.98;65.96
39443;BME280;25147;52.142;9.960;2023-06-26T13:02:07;100454.75;;;23.63;66.54
39443;BME280;25147;52.142;9.960;2023-06-26T13:04:34;100367.06;;;22.91;66.92
39443;BME280;25147;52.142;9.960;2023-06-26T13:07:02;100314.59;;;22.39;66.61
39443;BME280;25147;52.142;9.960;2023-06-26T13:09:33;100355.41;;;22.67;67.15
39443;BME280;25147;52.142;9.960;2023-06-26T13:12:09;100220.44;;;21.84;67.37
39443;BME280;25147;52.142;9.960;2023-06-26T13:14:44;100368.78;;;22.92;67.69
39443;BME280;25147;52.142;9.960;2023-06-26T13:17:11;100257.38;;;22.30;67.35
39443;BME280;25147;52.142;9.960;2023-06-26T13:19:56;100173.25;;;21.99;64.96
39443;BME280;25147;52.142;9.960;2023-06-26T13:22:23;100428.44;;;23.70;62.08
39443;BME280;25147;52.142;9.960;2023-06-26T13:24:49;100406.94;;;23.58;60.91
39443;BME280;25147;52.142;9.960;2023-06-26T13:27:31;100169.94;;;22.08;60.60
39443;BME280;25147;52.142;9.960;2023-06-26T13:30:16;100194.09;;;22.32;60.94
39443;BME280;25147;52.142;9.960;2023-06-26T13:33:38;100424.78;;;23.96;60.81
39443;BME280;25147;52.142;9.960;2023-06-26T13:36:14;100334.09;;;23.43;59.35
39443;BME280;25147;52.142;9.960;2023-06-26T13:39:00;100444.25;;;23.98;59.60
39443;BME280;25147;52.142;9.960;2023-06-26T13:41:36;100232.97;;;22.75;58.38
39443;BME280;25147;52.142;9.960;2023-06-26T13:44:07;100250.47;;;22.66;56.01
39443;BME280;25147;52.142;9.960;2023-06-26T13:46:46;100452.47;;;23.95;56.90
39443;BME280;25147;52.142;9.960;2023-06-26T13:49:13;100353.19;;;23.50;55.96
39443;BME280;25147;52.142;9.960;2023-06-26T13:51:50;100315.59;;;23.40;55.80
39443;BME280;25147;52.142;9.960;2023-06-26T13:54:55;100218.09;;;22.96;55.71
39443;BME280;25147;52.142;9.960;2023-06-26T13:57:25;100341.41;;;23.66;54.66
39443;BME280;25147;52.142;9.960;2023-06-26T13:59:55;100380.97;;;23.73;54.37
39443;BME280;25147;52.142;9.960;2023-06-26T14:02:29;100384.09;;;23.67;54.78
39443;BME280;25147;52.142;9.960;2023-06-26T14:05:08;100351.81;;;23.44;55.05
39443;BME280;25147;52.142;9.960;2023-06-26T14:07:46;100410.38;;;23.86;54.85
39443;BME280;25147;52.142;9.960;2023-06-26T14:10:16;100316.59;;;23.27;54.75
39443;BME280;25147;52.142;9.960;2023-06-26T14:12:47;100255.16;;;22.75;55.26
39443;BME280;25147;52.142;9.960;2023-06-26T14:15:44;100186.97;;;22.33;55.20
39443;BME280;25147;52.142;9.960;2023-06-26T14:18:13;100447.97;;;24.09;55.33
39443;BME280;25147;52.142;9.960;2023-06-26T14:20:43;100435.38;;;24.22;54.64
39443;BME280;25147;52.142;9.960;2023-06-26T14:23:22;100224.00;;;23.01;54.13
39443;BME280;25147;52.142;9.960;2023-06-26T14:26:13;100417.47;;;24.35;54.56
39443;BME280;25147;52.142;9.960;2023-06-26T14:28:46;100322.47;;;23.81;54.91
39443;BME280;25147;52.142;9.960;2023-06-26T14:31:16;100176.66;;;23.03;53.60
39443;BME280;25147;52.142;9.960;2023-06-26T14:33:45;100206.78;;;23.18;52.91
39443;BME280;25147;52.142;9.960;2023-06-26T14:36:13;100366.56;;;24.24;50.84
39443;BME280;25147;52.142;9.960;2023-06-26T14:38:57;100313.88;;;23.89;50.83
39443;BME280;25147;52.142;9.960;2023-06-26T14:41:36;100337.78;;;24.03;50.51
39443;BME280;25147;52.142;9.960;2023-06-26T14:44:24;100188.19;;;23.17;50.26
39443;BME280;25147;52.142;9.960;2023-06-26T14:46:56;100204.09;;;23.18;49.31
39443;BME280;25147;52.142;9.960;2023-06-26T14:49:26;100235.97;;;23.46;49.12
39443;BME280;25147;52.142;9.960;2023-06-26T14:51:56;100436.06;;;24.74;49.03
39443;BME280;25147;52.142;9.960;2023-06-26T14:54:29;100347.84;;;24.24;49.01
39443;BME280;25147;52.142;9.960;2023-06-26T14:56:59;100185.47;;;23.30;49.07
39443;BME280;25147;52.142;9.960;2023-06-26T14:59:32;100165.63;;;23.21;49.91